^^
Grace C. Lehan Memorial Weather Station Historical Data
Daily Summary for January 31, 2021 Units:  English    Metric   Both
Daily Weekly Monthly Yearly
  High: Low: Average:
Temperature: 85.3 °F 66.8 °F 74.8 °F
Dew Point: 72.4 °F 61.9 °F 65.4 °F
Humidity: 91% 48.6% 74%
Wind Speed: 6.5mph 0mph 0.7mph
Wind Gust: 16mph - -
Wind- - WNW
Pressure: 29.77 in 29.70 in -
Precipitation: 0.00 in    
 
 
Tabular Data for January 31, 2021
Time Temperature Dew Point Pressure Wind Wind Speed Wind Gust Humidity Rainfall Rate (Hourly) solar
00:09 75.9 °F 72.4 °F 29.73 in West 0.1 mph 2 mph 89% 0.00 in 0 W/m2
00:14 75.8 °F 72.2 °F 29.73 in Calm   2 mph 88.7% 0.00 in 0 W/m2
00:19 75.6 °F 71.6 °F 29.73 in Calm   2 mph 87.2% 0.00 in 0 W/m2
00:24 75.6 °F 71.5 °F 29.73 in Calm   2 mph 87% 0.00 in 0 W/m2
00:28 75.6 °F 71.2 °F 29.73 in Calm   2 mph 86.1% 0.00 in 0 W/m2
00:34 75.7 °F 71 °F 29.74 in West 0.4 mph 4 mph 85.4% 0.00 in 0 W/m2
00:39 75.7 °F 70.4 °F 29.74 in West 0.2 mph 4 mph 83.5% 0.00 in 0 W/m2
00:44 75.7 °F 69.4 °F 29.74 in WNW 0.4 mph 4 mph 80.8% 0.00 in 0 W/m2
00:49 75.8 °F 68.9 °F 29.74 in Calm   4 mph 79.2% 0.00 in 0 W/m2
00:54 75.9 °F 68.7 °F 29.74 in Calm   4 mph 78.2% 0.00 in 0 W/m2
00:59 76 °F 68.6 °F 29.74 in Calm   4 mph 77.8% 0.00 in 0 W/m2
01:04 76.1 °F 68.1 °F 29.74 in NW 0.4 mph 5 mph 76.2% 0.00 in 0 W/m2
01:09 76.2 °F 67.7 °F 29.73 in Calm   5 mph 75% 0.00 in 0 W/m2
01:14 76.3 °F 67.7 °F 29.73 in Calm   5 mph 74.9% 0.00 in 0 W/m2
01:19 76.4 °F 67.5 °F 29.73 in Calm   5 mph 74% 0.00 in 0 W/m2
01:24 76.4 °F 67.5 °F 29.73 in Calm   5 mph 74% 0.00 in 0 W/m2
01:29 76.4 °F 67.5 °F 29.73 in Calm   5 mph 74% 0.00 in 0 W/m2
01:34 76.3 °F 67.4 °F 29.73 in Calm   5 mph 74% 0.00 in 0 W/m2
01:39 76.2 °F 67.3 °F 29.73 in Calm     74% 0.00 in 0 W/m2
01:44 76.1 °F 67.3 °F 29.73 in Calm     74.2% 0.00 in 0 W/m2
01:49 76 °F 67.3 °F 29.73 in Calm     74.5% 0.00 in 0 W/m2
01:54 75.8 °F 67.3 °F 29.73 in Calm     75% 0.00 in 0 W/m2
01:59 75.6 °F 67.1 °F 29.74 in Calm     75% 0.00 in 0 W/m2
02:04 75.4 °F 67.3 °F 29.74 in Calm     75.8% 0.00 in 0 W/m2
02:09 75.3 °F 67.2 °F 29.74 in Calm     76% 0.00 in 0 W/m2
02:14 75.1 °F 67.1 °F 29.74 in Calm     76.2% 0.00 in 0 W/m2
02:19 75 °F 67.2 °F 29.74 in Calm     76.8% 0.00 in 0 W/m2
02:24 74.9 °F 67.2 °F 29.74 in Calm     77% 0.00 in 0 W/m2
02:29 74.7 °F 67.2 °F 29.74 in Calm     77.7% 0.00 in 0 W/m2
02:34 74.5 °F 67.2 °F 29.74 in Calm     77.9% 0.00 in 0 W/m2
02:39 74.4 °F 67.1 °F 29.74 in Calm     78% 0.00 in 0 W/m2
02:44 74.2 °F 67.1 °F 29.74 in Calm     78.4% 0.00 in 0 W/m2
02:49 74.1 °F 67.2 °F 29.73 in Calm     79% 0.00 in 0 W/m2
02:54 74 °F 67 °F 29.73 in Calm     79% 0.00 in 0 W/m2
02:59 73.8 °F 66.9 °F 29.73 in Calm     79% 0.00 in 0 W/m2
03:04 73.7 °F 66.5 °F 29.74 in Calm     78.3% 0.00 in 0 W/m2
03:09 73.5 °F 66.3 °F 29.74 in Calm     78.2% 0.00 in 0 W/m2
03:14 73.4 °F 65.9 °F 29.74 in NNW 0.1 mph 3 mph 77.4% 0.00 in 0 W/m2
03:19 73.2 °F 65 °F 29.74 in Calm   3 mph 75.7% 0.00 in 0 W/m2
03:24 73 °F 64.6 °F 29.73 in Calm   3 mph 75% 0.00 in 0 W/m2
03:29 72.9 °F 64.8 °F 29.74 in Calm   3 mph 75.7% 0.00 in 0 W/m2
03:34 72.9 °F 64.9 °F 29.74 in Calm   3 mph 76% 0.00 in 0 W/m2
03:39 72.8 °F 64.8 °F 29.74 in Calm     76% 0.00 in 0 W/m2
03:44 72.7 °F 64.8 °F 29.74 in Calm     76.3% 0.00 in 0 W/m2
03:49 72.6 °F 65 °F 29.74 in Calm     77% 0.00 in 0 W/m2
03:54 72.5 °F 64.9 °F 29.74 in Calm     77% 0.00 in 0 W/m2
03:59 72.4 °F 64.8 °F 29.74 in Calm     77% 0.00 in 0 W/m2
04:00 72.3 °F 64.7 °F 29.74 in Calm     77% 0.00 in 0 W/m2
04:09 72.1 °F 64.9 °F 29.74 in Calm     78% 0.00 in 0 W/m2
04:14 72 °F 64.9 °F 29.74 in Calm     78.4% 0.00 in 0 W/m2
04:19 71.8 °F 65 °F 29.74 in Calm     79% 0.00 in 0 W/m2
04:24 71.6 °F 64.9 °F 29.74 in Calm     79.4% 0.00 in 0 W/m2
04:29 71.5 °F 65.3 °F 29.74 in Calm     80.9% 0.00 in 0 W/m2
04:34 71.3 °F 65.2 °F 29.74 in Calm     81% 0.00 in 0 W/m2
04:39 71.1 °F 65.2 °F 29.74 in Calm     81.5% 0.00 in 0 W/m2
04:44 70.9 °F 65.1 °F 29.74 in Calm     82% 0.00 in 0 W/m2
04:49 70.6 °F 64.9 °F 29.74 in Calm     82% 0.00 in 0 W/m2
04:54 70.4 °F 64.7 °F 29.74 in Calm     82.1% 0.00 in 0 W/m2
04:59 70.3 °F 64.9 °F 29.74 in Calm     83% 0.00 in 0 W/m2
05:04 70.1 °F 64.8 °F 29.73 in Calm     83.2% 0.00 in 0 W/m2
05:09 69.9 °F 64.9 °F 29.74 in Calm     84% 0.00 in 0 W/m2
05:14 69.7 °F 64.7 °F 29.74 in Calm     84.2% 0.00 in 0 W/m2
05:19 69.6 °F 64.5 °F 29.74 in Calm     84% 0.00 in 0 W/m2
05:24 69.4 °F 64.7 °F 29.74 in Calm     85% 0.00 in 0 W/m2
05:29 69.2 °F 64.5 °F 29.74 in Calm     85% 0.00 in 0 W/m2
05:34 68.9 °F 64.3 °F 29.74 in Calm     85% 0.00 in 0 W/m2
05:39 68.8 °F 64.1 °F 29.73 in Calm     85% 0.00 in 0 W/m2
05:44 68.6 °F 63.9 °F 29.73 in Calm     85% 0.00 in 0 W/m2
05:49 68.5 °F 64 °F 29.73 in Calm     85.7% 0.00 in 0 W/m2
05:54 68.4 °F 64.1 °F 29.73 in Calm     86.2% 0.00 in 0 W/m2
05:59 68.3 °F 64.3 °F 29.73 in Calm     87% 0.00 in 0 W/m2
06:04 68.1 °F 64.1 °F 29.73 in Calm     87% 0.00 in 0 W/m2
06:09 68 °F 64.3 °F 29.74 in Calm     87.9% 0.00 in 0 W/m2
06:14 67.9 °F 64.2 °F 29.74 in Calm     88% 0.00 in 0 W/m2
06:19 67.7 °F 64 °F 29.74 in Calm     88% 0.00 in 0 W/m2
06:24 67.5 °F 63.8 °F 29.74 in Calm     88% 0.00 in 0 W/m2
06:28 67.3 °F 63.6 °F 29.74 in Calm     88% 0.00 in 5 W/m2
06:34 67.1 °F 63.5 °F 29.74 in Calm     88% 0.00 in 12 W/m2
06:39 67 °F 63.7 °F 29.74 in Calm     88.9% 0.00 in 16 W/m2
06:44 66.9 °F 63.6 °F 29.74 in Calm     89% 0.00 in 23 W/m2
06:49 66.9 °F 63.6 °F 29.75 in Calm     89.4% 0.00 in 32 W/m2
06:54 66.8 °F 63.8 °F 29.75 in Calm     90% 0.00 in 44 W/m2
06:59 66.8 °F 63.8 °F 29.75 in Calm     90% 0.00 in 65 W/m2
07:04 67 °F 64.1 °F 29.75 in Calm     90.6% 0.00 in 63 W/m2
07:09 67.1 °F 64.4 °F 29.75 in Calm     91% 0.00 in 67 W/m2
07:14 67.2 °F 64.4 °F 29.75 in Calm     90.6% 0.00 in 65 W/m2
07:19 67.5 °F 64.5 °F 29.75 in Calm     90.2% 0.00 in 65 W/m2
07:24 67.7 °F 64.7 °F 29.76 in Calm     90% 0.00 in 53 W/m2
07:29 67.9 °F 64.9 °F 29.76 in Calm     90% 0.00 in 47 W/m2
07:34 68.2 °F 65.2 °F 29.76 in Calm     90% 0.00 in 56 W/m2
07:39 68.5 °F 65.5 °F 29.76 in Calm     90% 0.00 in 62 W/m2
07:44 68.8 °F 65.5 °F 29.76 in Calm     89.4% 0.00 in 63 W/m2
07:49 69 °F 65.8 °F 29.76 in Calm     89.5% 0.00 in 63 W/m2
07:54 69.2 °F 65.8 °F 29.76 in Calm     89% 0.00 in 79 W/m2
07:59 69.3 °F 65.7 °F 29.77 in Calm     88.3% 0.00 in 79 W/m2
08:00 69.4 °F 65.7 °F 29.76 in Calm     88% 0.00 in 76 W/m2
08:09 69.8 °F 66.1 °F 29.77 in Calm     88% 0.00 in 72 W/m2
08:14 70 °F 66.3 °F 29.77 in Calm     88% 0.00 in 90 W/m2
08:19 70.3 °F 66.7 °F 29.77 in Calm     88.4% 0.00 in 93 W/m2
08:24 70.5 °F 67 °F 29.77 in Calm     88.4% 0.00 in 114 W/m2
08:29 70.8 °F 66.9 °F 29.77 in Calm     87.6% 0.00 in 139 W/m2
08:34 70.9 °F 66.4 °F 29.77 in Calm     85.8% 0.00 in 172 W/m2
08:39 71.2 °F 66.4 °F 29.77 in Calm     84.8% 0.00 in 200 W/m2
08:44 71.5 °F 66.2 °F 29.77 in Calm     83.4% 0.00 in 251 W/m2
08:49 71.9 °F 66 °F 29.77 in Calm     81.7% 0.00 in 148 W/m2
08:54 72.3 °F 66.3 °F 29.77 in Calm     81.3% 0.00 in 144 W/m2
08:59 72.6 °F 66.2 °F 29.77 in Calm     80.4% 0.00 in 151 W/m2
09:04 72.8 °F 65.9 °F 29.77 in Calm     78.8% 0.00 in 176 W/m2
09:09 73.1 °F 65.7 °F 29.77 in Calm     77.5% 0.00 in 186 W/m2
09:13 73.4 °F 65.9 °F 29.77 in Calm     77.5% 0.00 in 239 W/m2
10:00 75.1 °F 65.9 °F 29.76 in Calm   3 mph 73% 0.00 in 198 W/m2
10:30 76 °F 67.1 °F 29.76 in Calm   4 mph 74% 0.00 in 216 W/m2
11:00 79.4 °F 67.9 °F 29.75 in Calm   3 mph 68% 0.00 in 468 W/m2
11:30 83 °F 67.7 °F 29.74 in WNW 1 mph 9 mph 60% 0.00 in 676 W/m2
12:04 83 °F 67.1 °F 29.74 in WNW 0.8 mph 6 mph 58.9% 0.00 in 248 W/m2
12:09 83 °F 67.3 °F 29.74 in WNW 2.6 mph 11 mph 59.2% 0.00 in 190 W/m2
12:14 83.1 °F 66.5 °F 29.74 in NW 2 mph 11 mph 57.4% 0.00 in 209 W/m2
12:19 82.9 °F 66.3 °F 29.74 in NW 1.6 mph 11 mph 57.3% 0.00 in 257 W/m2
12:24 82.9 °F 67.2 °F 29.74 in WNW 1.3 mph 11 mph 59.3% 0.00 in 253 W/m2
12:29 82.9 °F 67.2 °F 29.74 in West 2.3 mph 11 mph 59.3% 0.00 in 285 W/m2
12:34 82.8 °F 66.6 °F 29.73 in NW 2 mph 11 mph 58.2% 0.00 in 304 W/m2
12:39 82.6 °F 66.5 °F 29.73 in NW 1.7 mph 7 mph 58.2% 0.00 in 817 W/m2
12:44 82.6 °F 65.5 °F 29.73 in North 1.2 mph 7 mph 56.4% 0.00 in 817 W/m2
12:49 82.9 °F 65.8 °F 29.73 in NW 2.6 mph 7 mph 56.5% 0.00 in 418 W/m2
12:54 83.2 °F 65.4 °F 29.73 in West 1.3 mph 7 mph 55.1% 0.00 in 612 W/m2
12:59 83.6 °F 65.1 °F 29.73 in WNW 4.6 mph 10 mph 53.8% 0.00 in 793 W/m2
13:04 83.9 °F 65.3 °F 29.73 in West 2 mph 10 mph 53.7% 0.00 in 729 W/m2
13:09 84.3 °F 65.6 °F 29.73 in WNW 0.7 mph 4 mph 53.6% 0.00 in 687 W/m2
13:14 84.6 °F 66.2 °F 29.73 in WNW 1.2 mph 6 mph 54.1% 0.00 in 773 W/m2
13:19 84.9 °F 65.9 °F 29.73 in WNW 3.3 mph 11 mph 53% 0.00 in 680 W/m2
13:24 85 °F 65.6 °F 29.72 in NW 3.6 mph 11 mph 52.4% 0.00 in 853 W/m2
13:29 84.9 °F 65 °F 29.72 in West 3.2 mph 11 mph 51.4% 0.00 in 817 W/m2
13:34 84.9 °F 65.8 °F 29.73 in West 3.7 mph 13 mph 52.8% 0.00 in 826 W/m2
13:39 85.1 °F 65.9 °F 29.73 in WNW 3.1 mph 13 mph 52.7% 0.00 in 998 W/m2
13:44 85.3 °F 65.5 °F 29.72 in WNW 5.4 mph 13 mph 51.7% 0.00 in 998 W/m2
13:49 85.1 °F 64.8 °F 29.73 in NW 6.5 mph 15 mph 50.7% 0.00 in 838 W/m2
13:54 84.8 °F 63.8 °F 29.73 in WNW 6.1 mph 15 mph 49.6% 0.00 in 737 W/m2
13:59 84.5 °F 63.4 °F 29.73 in NW 4.6 mph 15 mph 49.2% 0.00 in 577 W/m2
14:04 84.2 °F 63.1 °F 29.73 in WNW 5.5 mph 15 mph 49.2% 0.00 in 613 W/m2
14:09 83.9 °F 63 °F 29.73 in WNW 3.7 mph 13 mph 49.5% 0.00 in 504 W/m2
14:14 83.7 °F 62.5 °F 29.73 in NW 4 mph 13 mph 49% 0.00 in 501 W/m2
14:19 83.5 °F 63 °F 29.73 in NW 3 mph 13 mph 50% 0.00 in 410 W/m2
14:24 83.2 °F 61.9 °F 29.73 in WNW 5.5 mph 13 mph 48.6% 0.00 in 332 W/m2
14:29 82.7 °F 62.4 °F 29.73 in WNW 4.9 mph 15 mph 50.3% 0.00 in 265 W/m2
14:34 82.3 °F 62.8 °F 29.73 in WNW 2.3 mph 15 mph 51.7% 0.00 in 243 W/m2
14:39 82 °F 63.2 °F 29.73 in WNW 3.9 mph 16 mph 52.9% 0.00 in 192 W/m2
14:44 81.6 °F 62.3 °F 29.73 in WNW 3.8 mph 16 mph 52% 0.00 in 209 W/m2
14:49 81.3 °F 62.7 °F 29.73 in WNW 2.9 mph 16 mph 53.3% 0.00 in 309 W/m2
14:54 81.1 °F 63.3 °F 29.72 in NW 2.2 mph 16 mph 54.7% 0.00 in 476 W/m2
14:59 81.1 °F 63.6 °F 29.72 in NW 2.9 mph 16 mph 55.3% 0.00 in 476 W/m2
15:04 81.3 °F 64.2 °F 29.72 in WNW 2.9 mph 16 mph 56.1% 0.00 in 612 W/m2
15:09 81.6 °F 64 °F 29.72 in WNW 4.1 mph 10 mph 55.3% 0.00 in 545 W/m2
15:14 81.7 °F 63.9 °F 29.72 in NW 2.3 mph 10 mph 54.7% 0.00 in 640 W/m2
15:19 82 °F 64.9 °F 29.72 in NNW 1.4 mph 10 mph 56.3% 0.00 in 663 W/m2
15:24 82.3 °F 64.8 °F 29.72 in NW 2.6 mph 12 mph 55.6% 0.00 in 564 W/m2
15:29 82.6 °F 65 °F 29.71 in WNW 3.1 mph 12 mph 55.3% 0.00 in 580 W/m2
15:34 82.7 °F 64.6 °F 29.71 in WNW 4 mph 12 mph 54.4% 0.00 in 580 W/m2
15:39 82.6 °F 64.4 °F 29.71 in WNW 2.3 mph 9 mph 54.2% 0.00 in 686 W/m2
15:44 82.7 °F 64.3 °F 29.71 in WNW 3.2 mph 9 mph 53.8% 0.00 in 708 W/m2
15:49 83 °F 64.7 °F 29.71 in WNW 4.1 mph 12 mph 54% 0.00 in 668 W/m2
15:54 83.2 °F 65 °F 29.71 in West 2.9 mph 12 mph 54.4% 0.00 in 654 W/m2
15:59 83.4 °F 64.9 °F 29.71 in West 2.1 mph 12 mph 53.8% 0.00 in 649 W/m2
16:09 83.6 °F 65.3 °F 29.71 in West 1.1 mph 5 mph 54.2% 0.00 in 56 W/m2
16:14 83.6 °F 65.5 °F 29.71 in West 1.3 mph 5 mph 54.5% 0.00 in 60 W/m2
16:19 83.6 °F 65.1 °F 29.71 in WSW 2.9 mph 11 mph 53.8% 0.00 in 67 W/m2
16:24 83.3 °F 64.9 °F 29.71 in West 3.6 mph 11 mph 53.9% 0.00 in 65 W/m2
16:29 83.1 °F 64.2 °F 29.71 in WSW 1.2 mph 11 mph 52.8% 0.00 in 58 W/m2
16:34 83.1 °F 64.8 °F 29.71 in West 1.4 mph 11 mph 54% 0.00 in 51 W/m2
16:36 83 °F 64.5 °F 29.71 in WNW 0.8 mph 7 mph 53.7% 0.00 in 49 W/m2
17:30 82 °F 64.3 °F 29.70 in WNW 1 mph 5 mph 55% 0.00 in 38 W/m2
18:30 80.4 °F 66.2 °F 29.70 in Calm   4 mph 62% 0.00 in 36 W/m2
19:00 79.3 °F 65.6 °F 29.71 in Calm   2 mph 63% 0.00 in 17 W/m2
19:30 77.6 °F 65.8 °F 29.72 in Calm     67% 0.00 in 3 W/m2
20:04 75.1 °F 65.8 °F 29.72 in Calm     73% 0.00 in 0 W/m2
20:09 74.8 °F 65.9 °F 29.73 in Calm     73.6% 0.00 in 0 W/m2
20:14 74.5 °F 65.6 °F 29.73 in Calm   1 mph 74% 0.00 in 0 W/m2
20:19 74.2 °F 65.7 °F 29.73 in Calm   1 mph 74.9% 0.00 in 0 W/m2
20:24 73.9 °F 65.5 °F 29.73 in Calm   1 mph 75% 0.00 in 0 W/m2
20:29 73.6 °F 65.3 °F 29.73 in Calm   1 mph 75.2% 0.00 in 0 W/m2
20:34 73.4 °F 65.4 °F 29.73 in Calm   1 mph 76% 0.00 in 0 W/m2
20:39 73.2 °F 65.2 °F 29.73 in Calm     76% 0.00 in 0 W/m2
20:44 73 °F 65.1 °F 29.73 in Calm     76.3% 0.00 in 0 W/m2
20:49 72.8 °F 65.2 °F 29.74 in Calm     77% 0.00 in 0 W/m2
20:54 72.7 °F 65.1 °F 29.74 in Calm     77% 0.00 in 0 W/m2
20:59 72.6 °F 64.9 °F 29.74 in Calm     77% 0.00 in 0 W/m2
21:04 72.4 °F 64.8 °F 29.74 in Calm     77% 0.00 in 0 W/m2
21:09 72.3 °F 64.9 °F 29.74 in Calm     77.6% 0.00 in 0 W/m2
21:14 72.2 °F 64.7 °F 29.74 in Calm     77.5% 0.00 in 0 W/m2
21:19 72.1 °F 64.8 °F 29.74 in Calm     78% 0.00 in 0 W/m2
21:24 72 °F 64.7 °F 29.74 in Calm     78% 0.00 in 0 W/m2
21:29 71.9 °F 64.7 °F 29.74 in Calm     78% 0.00 in 0 W/m2
21:34 71.7 °F 64.5 °F 29.74 in Calm     78% 0.00 in 0 W/m2
21:39 71.6 °F 64.4 °F 29.74 in Calm     78% 0.00 in 0 W/m2
21:44 71.5 °F 64.7 °F 29.74 in Calm     79% 0.00 in 0 W/m2
21:49 71.4 °F 64.6 °F 29.74 in Calm     79% 0.00 in 0 W/m2
21:54 71.3 °F 64.8 °F 29.74 in Calm     79.8% 0.00 in 0 W/m2
21:59 71.2 °F 64.7 °F 29.74 in Calm     80% 0.00 in 0 W/m2
22:04 71.1 °F 64.6 °F 29.74 in Calm     80% 0.00 in 0 W/m2
22:09 70.9 °F 64.6 °F 29.74 in Calm     80.4% 0.00 in 0 W/m2
22:14 70.8 °F 64.7 °F 29.74 in Calm     81% 0.00 in 0 W/m2
22:19 70.7 °F 64.6 °F 29.74 in Calm     81% 0.00 in 0 W/m2
22:24 70.6 °F 64.5 °F 29.74 in Calm     81% 0.00 in 0 W/m2
22:29 70.6 °F 64.4 °F 29.75 in WSW 0.1 mph 3 mph 81% 0.00 in 0 W/m2
22:34 70.5 °F 64.4 °F 29.75 in Calm   3 mph 81% 0.00 in 0 W/m2
22:39 70.4 °F 64.3 °F 29.75 in Calm   1 mph 81% 0.00 in 0 W/m2
22:44 70.4 °F 64.3 °F 29.75 in Calm   1 mph 81% 0.00 in 0 W/m2
22:49 70.4 °F 64.3 °F 29.75 in Calm   1 mph 81% 0.00 in 0 W/m2
22:54 70.3 °F 64.2 °F 29.75 in Calm   1 mph 81% 0.00 in 0 W/m2
22:59 70.3 °F 64.2 °F 29.75 in Calm   1 mph 81% 0.00 in 0 W/m2
23:04 70.2 °F 64.1 °F 29.76 in Calm   1 mph 81% 0.00 in 0 W/m2
23:09 70.1 °F 64 °F 29.76 in Calm     81% 0.00 in 0 W/m2
23:14 70.1 °F 64.3 °F 29.76 in Calm     81.9% 0.00 in 0 W/m2
23:19 70 °F 64.3 °F 29.75 in Calm     82% 0.00 in 0 W/m2
23:24 70 °F 64.1 °F 29.75 in Calm     81.5% 0.00 in 0 W/m2
23:29 70 °F 63.9 °F 29.75 in Calm     81% 0.00 in 0 W/m2
23:34 70.1 °F 64.2 °F 29.75 in Calm     81.5% 0.00 in 0 W/m2
23:39 70.1 °F 64.1 °F 29.76 in Calm     81.4% 0.00 in 0 W/m2
23:44 70 °F 63.9 °F 29.76 in Calm     81% 0.00 in 0 W/m2
23:49 70 °F 63.9 °F 29.76 in Calm     81% 0.00 in 0 W/m2
23:54 69.9 °F 64.2 °F 29.76 in Calm     82% 0.00 in 0 W/m2
23:59 69.9 °F 64.1 °F 29.76 in Calm     82% 0.00 in 0 W/m2
Hartford County Weather
Compliments of Weather Underground - 2 mb